Bismarck, North Dakota
Current Conditions -  °F | °C
As of 1:52 PM on Sunday 23 Nov 2014 (Local Time) from KBIS Reporting Station
Overcast Overcast  
Wind Chill: -13°   Ceiling: 2200
Heat Index: -4°   Visibility: 10mi
Dew Point: -9°   Wind: 26mph
Humidity: 69%   Direction: 320°NW
Pressure: 29.62"   Gusts: 35mph
Location:  46.81°N, 100.77°W
Report Text: KBIS 231952Z 32023G30KT 10SM OVC022 M04/M09 A2962 RMK AO2 PK WND 32032/1854 SLP048 T10441094
Loading
Personal Weather Stations






























Interactive Weather Map New forecast layout! Learn more

10-Day Weather Forecast

Advertisements
Track Severe Weather on mobile